createdAt,value
2018-07-16T00:00:40.801Z,0.75
2018-07-16T00:03:10.133Z,0.83
2018-07-16T00:05:39.470Z,0.60
2018-07-16T00:08:08.788Z,0.57
2018-07-16T00:10:38.120Z,0.80
2018-07-16T00:13:07.489Z,0.80
2018-07-16T00:15:36.817Z,0.60
2018-07-16T00:18:06.212Z,0.50
2018-07-16T00:20:35.561Z,0.67
2018-07-16T00:23:04.929Z,0.50
2018-07-16T00:25:34.256Z,0.70
2018-07-16T00:28:03.656Z,0.67
2018-07-16T00:30:32.962Z,0.57
2018-07-16T00:33:02.285Z,0.60
2018-07-16T00:35:31.656Z,0.70
2018-07-16T00:38:00.968Z,0.43
2018-07-16T00:40:30.324Z,0.60
2018-07-16T00:42:59.693Z,0.50
2018-07-16T00:45:29.012Z,0.60
2018-07-16T00:47:58.401Z,0.50
2018-07-16T00:50:27.732Z,0.80
2018-07-16T00:52:57.063Z,0.60
2018-07-16T00:55:26.391Z,0.73
2018-07-16T00:57:55.796Z,0.73
2018-07-16T01:00:25.116Z,0.90
2018-07-16T01:02:54.448Z,0.70
2018-07-16T01:05:23.773Z,0.60
2018-07-16T01:07:53.100Z,0.60
2018-07-16T01:10:22.431Z,0.67
2018-07-16T01:12:51.792Z,0.77
2018-07-16T01:15:21.137Z,0.80
2018-07-16T01:17:50.575Z,0.60
2018-07-16T01:20:19.997Z,0.80
2018-07-16T01:22:49.303Z,0.90
2018-07-16T01:25:18.684Z,0.90
2018-07-16T01:27:48.045Z,0.70
2018-07-16T01:30:17.379Z,0.80
2018-07-16T01:32:46.747Z,0.80
2018-07-16T01:35:16.103Z,0.72
2018-07-16T01:37:45.468Z,0.63
2018-07-16T01:40:14.832Z,0.60
2018-07-16T01:42:44.391Z,0.67
2018-07-16T01:45:13.734Z,0.90
2018-07-16T01:47:43.072Z,0.80
2018-07-16T01:50:12.404Z,0.73
2018-07-16T01:52:41.745Z,0.93
2018-07-16T01:55:11.088Z,1.00
2018-07-16T01:57:40.400Z,0.63
2018-07-16T02:00:09.735Z,0.90
2018-07-16T02:02:39.084Z,0.80
2018-07-16T02:05:08.504Z,0.67
2018-07-16T02:07:37.840Z,0.63
2018-07-16T02:10:07.223Z,0.80
2018-07-16T02:12:36.552Z,0.67
2018-07-16T02:15:05.979Z,1.10
2018-07-16T02:17:39.076Z,0.83
2018-07-16T02:20:09.509Z,0.80
2018-07-16T02:22:39.144Z,0.80
2018-07-16T02:25:09.152Z,0.90
2018-07-16T02:27:38.516Z,0.80
2018-07-16T02:30:07.884Z,4.60
2018-07-16T02:32:37.253Z,1.30
2018-07-16T02:35:06.621Z,0.90
2018-07-16T02:37:35.936Z,0.80
2018-07-16T02:40:05.356Z,0.90
2018-07-16T02:42:34.693Z,0.93
2018-07-16T02:45:04.186Z,1.20
2018-07-16T02:47:33.586Z,1.03
2018-07-16T02:50:02.961Z,1.20
2018-07-16T02:52:32.489Z,0.90
2018-07-16T02:55:01.805Z,1.20
2018-07-16T02:57:31.176Z,0.90
2018-07-16T03:00:00.513Z,0.80
2018-07-16T03:02:29.885Z,1.00
2018-07-16T03:04:59.215Z,1.03
2018-07-16T03:07:28.600Z,0.77
2018-07-16T03:09:58.009Z,0.90
2018-07-16T03:12:27.345Z,1.00
2018-07-16T03:14:57.049Z,0.90
2018-07-16T03:17:26.421Z,0.90
2018-07-16T03:19:55.746Z,1.20
2018-07-16T03:22:25.117Z,0.87
2018-07-16T03:24:54.448Z,0.87
2018-07-16T03:27:23.805Z,1.10
2018-07-16T03:29:53.156Z,1.00
2018-07-16T03:32:22.527Z,1.07
2018-07-16T03:34:51.867Z,1.20
2018-07-16T03:37:21.267Z,0.90
2018-07-16T03:39:50.595Z,1.10
2018-07-16T03:42:19.953Z,1.40
2018-07-16T03:44:49.320Z,1.20
2018-07-16T03:47:18.644Z,0.90
2018-07-16T03:49:47.980Z,1.27
2018-07-16T03:52:17.305Z,1.10
2018-07-16T03:54:46.673Z,1.03
2018-07-16T03:57:16.020Z,1.03
2018-07-16T03:59:45.353Z,1.17
2018-07-16T04:02:14.707Z,1.20
2018-07-16T04:04:44.032Z,1.30
2018-07-16T04:07:13.368Z,1.27
2018-07-16T04:09:42.732Z,1.17
2018-07-16T04:12:12.064Z,1.30
2018-07-16T04:14:41.385Z,0.90
2018-07-16T04:17:11.077Z,1.40
2018-07-16T04:19:40.411Z,1.17
2018-07-16T04:22:09.736Z,1.10
2018-07-16T04:24:38.796Z,0.80
2018-07-16T04:27:08.179Z,1.10
2018-07-16T04:29:37.527Z,1.10
2018-07-16T04:32:06.920Z,0.90
2018-07-16T04:34:36.250Z,1.07
2018-07-16T04:37:05.592Z,1.10
2018-07-16T04:39:34.928Z,1.00
2018-07-16T04:42:04.524Z,1.00
2018-07-16T04:44:34.088Z,0.70
2018-07-16T04:47:03.730Z,1.00
2018-07-16T04:49:33.331Z,0.80
2018-07-16T04:52:02.667Z,0.90
2018-07-16T04:54:31.992Z,1.10
2018-07-16T04:57:01.443Z,1.10
2018-07-16T04:59:30.776Z,0.90
2018-07-16T05:02:00.108Z,0.80
2018-07-16T05:04:29.475Z,0.80
2018-07-16T05:06:58.806Z,0.70
2018-07-16T05:09:28.185Z,0.73
2018-07-16T05:11:57.552Z,1.43
2018-07-16T05:14:26.884Z,0.90
2018-07-16T05:16:56.217Z,0.97
2018-07-16T05:19:25.540Z,0.90
2018-07-16T05:21:54.864Z,0.70
2018-07-16T05:24:24.200Z,0.90
2018-07-16T05:26:53.608Z,0.70
2018-07-16T05:29:22.972Z,1.47
2018-07-16T05:31:52.360Z,1.30
2018-07-16T05:34:21.718Z,0.97
2018-07-16T05:36:51.032Z,1.00
2018-07-16T05:39:20.540Z,1.03
2018-07-16T05:41:49.897Z,1.00
2018-07-16T05:44:19.225Z,0.77
2018-07-16T05:46:48.769Z,1.00
2018-07-16T05:49:18.112Z,1.20
2018-07-16T05:51:47.556Z,1.10
2018-07-16T05:54:16.934Z,0.87
2018-07-16T05:56:46.331Z,0.87
2018-07-16T05:59:15.699Z,0.93
2018-07-16T06:01:45.057Z,0.93
2018-07-16T06:04:14.387Z,0.90
2018-07-16T06:06:43.709Z,1.13
2018-07-16T06:09:13.047Z,2.30
2018-07-16T06:11:42.371Z,1.20
2018-07-16T06:14:11.740Z,2.67
2018-07-16T06:16:41.079Z,2.50
2018-07-16T06:19:10.448Z,1.20
2018-07-16T06:21:39.865Z,1.07
2018-07-16T06:24:09.214Z,1.00
2018-07-16T06:26:38.623Z,0.90
2018-07-16T06:29:07.956Z,0.80
2018-07-16T06:31:37.299Z,0.50
2018-07-16T06:34:06.815Z,0.93
2018-07-16T06:36:36.156Z,0.50
2018-07-16T06:39:06.128Z,1.03
2018-07-16T06:41:35.854Z,0.63
2018-07-16T06:44:04.806Z,0.80
2018-07-16T06:46:34.180Z,0.70
2018-07-16T06:49:03.613Z,0.60
2018-07-16T06:51:33.280Z,0.67
2018-07-16T06:54:02.925Z,0.80
2018-07-16T06:56:32.422Z,0.90
2018-07-16T06:59:01.763Z,0.50
2018-07-16T07:01:31.175Z,0.60
2018-07-16T07:04:00.504Z,0.93
2018-07-16T07:06:30.663Z,0.70
2018-07-16T07:09:00.372Z,0.67
2018-07-16T07:11:29.665Z,0.77
2018-07-16T07:13:58.991Z,1.03
2018-07-16T07:16:28.344Z,0.80
2018-07-16T07:18:57.777Z,3.40
2018-07-16T07:21:27.118Z,2.20
2018-07-16T07:23:56.439Z,1.10
2018-07-16T07:26:25.766Z,0.90
2018-07-16T07:28:55.138Z,1.07
2018-07-16T07:31:24.493Z,1.10
2018-07-16T07:33:53.805Z,1.30
2018-07-16T07:36:23.144Z,0.90
2018-07-16T07:38:52.459Z,1.17
2018-07-16T07:41:21.811Z,1.20
2018-07-16T07:43:51.145Z,1.20
2018-07-16T07:46:20.520Z,0.97
2018-07-16T07:48:49.856Z,1.10
2018-07-16T07:51:19.181Z,0.97
2018-07-16T07:53:48.532Z,1.00
2018-07-16T07:56:17.954Z,1.40
2018-07-16T07:58:47.407Z,1.10
2018-07-16T08:01:16.753Z,1.50
2018-07-16T08:03:46.064Z,1.40
2018-07-16T08:06:15.440Z,1.40
2018-07-16T08:08:44.793Z,1.50
2018-07-16T08:11:14.120Z,1.33
2018-07-16T08:13:43.523Z,1.40
2018-07-16T08:16:12.814Z,1.60
2018-07-16T08:18:42.132Z,1.67
2018-07-16T08:21:11.460Z,1.20
2018-07-16T08:23:40.874Z,2.10
2018-07-16T08:26:10.228Z,2.17
2018-07-16T08:28:39.544Z,1.83
2018-07-16T08:31:08.896Z,1.40
2018-07-16T08:33:38.282Z,2.20
2018-07-16T08:36:07.595Z,1.80
2018-07-16T08:38:36.906Z,1.77
2018-07-16T08:41:06.300Z,2.03
2018-07-16T08:43:35.629Z,2.10
2018-07-16T08:46:04.964Z,1.73
2018-07-16T08:48:34.288Z,2.40
2018-07-16T08:51:03.636Z,1.90
2018-07-16T08:53:32.972Z,1.80
2018-07-16T08:56:02.480Z,2.25
2018-07-16T08:58:31.822Z,1.70
2018-07-16T09:01:01.212Z,1.60
2018-07-16T09:03:30.536Z,1.47
2018-07-16T09:06:04.360Z,1.40
2018-07-16T09:08:34.863Z,1.70
2018-07-16T09:11:04.391Z,1.60
2018-07-16T09:13:33.935Z,1.73
2018-07-16T09:16:03.442Z,1.97
2018-07-16T09:18:32.753Z,1.47
2018-07-16T09:21:02.464Z,1.10
2018-07-16T09:23:31.839Z,1.20
2018-07-16T09:26:01.174Z,1.80
2018-07-16T09:28:30.556Z,2.20
2018-07-16T09:30:59.875Z,1.70
2018-07-16T09:33:29.204Z,1.43
2018-07-16T09:35:58.541Z,1.73
2018-07-16T09:38:27.865Z,1.63
2018-07-16T09:40:57.234Z,1.50
2018-07-16T09:43:26.541Z,2.37
2018-07-16T09:45:55.856Z,1.70
2018-07-16T09:48:25.193Z,1.50
2018-07-16T09:50:54.524Z,1.90
2018-07-16T09:53:23.844Z,2.43
2018-07-16T09:55:53.180Z,2.10
2018-07-16T09:58:22.498Z,1.70
2018-07-16T10:00:57.036Z,1.33
2018-07-16T10:03:26.396Z,1.80
2018-07-16T10:05:55.754Z,1.60
2018-07-16T10:08:25.111Z,1.70
2018-07-16T10:10:54.424Z,1.87
2018-07-16T10:13:23.764Z,1.53
2018-07-16T10:15:53.092Z,1.90
2018-07-16T10:18:22.408Z,1.67
2018-07-16T10:20:51.765Z,1.90
2018-07-16T10:23:21.088Z,1.60
2018-07-16T10:25:50.477Z,1.83
2018-07-16T10:28:19.740Z,2.70
2018-07-16T10:30:49.105Z,1.97
2018-07-16T10:33:18.432Z,1.67
2018-07-16T10:35:47.770Z,1.97
2018-07-16T10:38:17.113Z,1.60
2018-07-16T10:40:46.481Z,2.10
2018-07-16T10:43:15.826Z,2.20
2018-07-16T10:45:45.132Z,2.07
2018-07-16T10:48:14.455Z,1.63
2018-07-16T10:50:44.432Z,1.60
2018-07-16T10:53:13.767Z,1.77
2018-07-16T10:55:43.100Z,1.03
2018-07-16T10:58:12.427Z,1.70
2018-07-16T11:00:41.761Z,1.93
2018-07-16T11:03:10.860Z,1.60
2018-07-16T11:05:40.153Z,1.63
2018-07-16T11:08:09.548Z,1.70
2018-07-16T11:10:38.876Z,1.60
2018-07-16T11:13:08.221Z,1.40
2018-07-16T11:15:37.541Z,1.40
2018-07-16T11:18:06.864Z,1.70
2018-07-16T11:20:36.375Z,1.20
2018-07-16T11:23:05.451Z,1.50
2018-07-16T11:25:34.783Z,1.60
2018-07-16T11:28:04.101Z,1.23
2018-07-16T11:30:33.521Z,1.43
2018-07-16T11:33:02.849Z,1.53
2018-07-16T11:35:32.287Z,1.07
2018-07-16T11:38:01.531Z,1.20
2018-07-16T11:40:30.909Z,1.20
2018-07-16T11:43:00.232Z,1.30
2018-07-16T11:45:29.596Z,1.20
2018-07-16T11:47:58.907Z,1.17
2018-07-16T11:50:28.323Z,1.00
2018-07-16T11:52:57.712Z,1.10
2018-07-16T11:55:27.218Z,0.98
2018-07-16T11:57:56.537Z,1.17
2018-07-16T12:00:25.944Z,1.10
2018-07-16T12:02:55.284Z,1.10
2018-07-16T12:05:24.660Z,1.70
2018-07-16T12:07:53.959Z,1.20
2018-07-16T12:10:23.291Z,1.20
2018-07-16T12:12:52.612Z,1.50
2018-07-16T12:15:21.673Z,1.27
2018-07-16T12:17:51.040Z,1.43
2018-07-16T12:20:20.402Z,2.57
2018-07-16T12:22:49.784Z,1.50
2018-07-16T12:25:19.091Z,1.20
2018-07-16T12:27:48.411Z,1.20
2018-07-16T12:30:17.723Z,1.40
2018-07-16T12:32:47.094Z,0.90
2018-07-16T12:35:16.408Z,0.90
2018-07-16T12:37:45.730Z,1.10
2018-07-16T12:40:15.049Z,1.10
2018-07-16T12:42:44.355Z,1.30
2018-07-16T12:45:13.726Z,1.10
2018-07-16T12:47:43.060Z,1.27
2018-07-16T12:50:12.380Z,1.20
2018-07-16T12:52:41.711Z,1.40
2018-07-16T12:55:11.037Z,1.20
2018-07-16T12:57:40.356Z,2.00
2018-07-16T13:00:09.729Z,1.43
2018-07-16T13:02:39.063Z,0.90
2018-07-16T13:05:08.437Z,1.20
2018-07-16T13:07:37.764Z,0.90
2018-07-16T13:10:07.171Z,1.13
2018-07-16T13:12:36.507Z,1.07
2018-07-16T13:15:06.029Z,1.13
2018-07-16T13:17:35.372Z,1.20
2018-07-16T13:20:04.726Z,1.13
2018-07-16T13:22:34.093Z,1.00
2018-07-16T13:25:03.494Z,1.20
2018-07-16T13:27:32.809Z,1.17
2018-07-16T13:30:02.134Z,1.13
2018-07-16T13:32:31.461Z,0.97
2018-07-16T13:35:00.790Z,1.10
2018-07-16T13:37:30.157Z,1.17
2018-07-16T13:39:59.477Z,1.40
2018-07-16T13:42:28.813Z,1.40
2018-07-16T13:44:58.168Z,1.30
2018-07-16T13:47:27.490Z,1.20
2018-07-16T13:49:56.813Z,1.27
2018-07-16T13:52:26.136Z,1.50
2018-07-16T13:54:55.468Z,1.30
2018-07-16T13:57:24.818Z,1.40
2018-07-16T13:59:54.197Z,1.33
2018-07-16T14:02:23.516Z,1.40
2018-07-16T14:04:52.849Z,1.20
2018-07-16T14:07:22.307Z,1.10
2018-07-16T14:09:51.631Z,1.00
2018-07-16T14:12:21.004Z,1.57
2018-07-16T14:14:50.324Z,1.27
2018-07-16T14:17:19.678Z,1.50
2018-07-16T14:19:48.748Z,1.40
2018-07-16T14:22:18.071Z,1.37
2018-07-16T14:24:47.495Z,1.10
2018-07-16T14:27:17.007Z,1.30
2018-07-16T14:29:46.397Z,1.37
2018-07-16T14:32:15.701Z,1.40
2018-07-16T14:34:45.030Z,1.47
2018-07-16T14:37:14.370Z,1.40
2018-07-16T14:39:43.771Z,1.13
2018-07-16T14:42:13.057Z,1.37
2018-07-16T14:44:42.399Z,1.30
2018-07-16T14:47:11.964Z,1.40
2018-07-16T14:49:41.329Z,1.10
2018-07-16T14:52:10.654Z,1.37
2018-07-16T14:54:39.975Z,1.30
2018-07-16T14:57:09.471Z,1.37
2018-07-16T14:59:38.741Z,1.07
2018-07-16T15:02:08.088Z,1.57
2018-07-16T15:04:37.412Z,1.13
2018-07-16T15:07:06.740Z,1.23
2018-07-16T15:09:36.062Z,1.10
2018-07-16T15:12:05.378Z,1.10
2018-07-16T15:14:34.709Z,1.03
2018-07-16T15:17:04.350Z,1.33
2018-07-16T15:19:33.663Z,1.17
2018-07-16T15:22:03.007Z,1.00
2018-07-16T15:24:32.350Z,0.93
2018-07-16T15:27:01.761Z,1.03
2018-07-16T15:29:31.109Z,1.43
2018-07-16T15:32:00.480Z,1.30
2018-07-16T15:34:29.820Z,1.37
2018-07-16T15:36:59.168Z,1.30
2018-07-16T15:39:28.473Z,1.10
2018-07-16T15:41:57.808Z,0.70
2018-07-16T15:44:27.177Z,0.60
2018-07-16T15:46:56.558Z,1.13
2018-07-16T15:49:25.833Z,0.90
2018-07-16T15:51:55.275Z,1.00
2018-07-16T15:54:24.664Z,0.90
2018-07-16T15:56:53.976Z,0.83
2018-07-16T15:59:23.347Z,0.70
2018-07-16T16:01:52.669Z,0.57
2018-07-16T16:04:21.997Z,0.80
2018-07-16T16:06:51.309Z,0.73
2018-07-16T16:09:20.668Z,1.07
2018-07-16T16:11:50.034Z,0.83
2018-07-16T16:14:19.458Z,0.63
2018-07-16T16:16:48.938Z,0.93
2018-07-16T16:19:18.269Z,0.90
2018-07-16T16:21:47.758Z,0.90
2018-07-16T16:24:17.131Z,0.70
2018-07-16T16:26:46.492Z,1.10
2018-07-16T16:29:16.012Z,1.03
2018-07-16T16:31:45.410Z,0.63
2018-07-16T16:34:14.732Z,0.90
2018-07-16T16:36:44.083Z,0.90
2018-07-16T16:39:13.431Z,0.77
2018-07-16T16:41:42.807Z,0.80
2018-07-16T16:44:12.153Z,1.07
2018-07-16T16:46:41.520Z,0.90
2018-07-16T16:49:10.928Z,0.73
2018-07-16T16:51:40.240Z,0.93
2018-07-16T16:54:09.676Z,0.60
2018-07-16T16:56:39.033Z,1.13
2018-07-16T16:59:08.524Z,1.20
2018-07-16T17:01:38.044Z,0.90
2018-07-16T17:04:07.472Z,1.17
2018-07-16T17:06:36.864Z,0.90
2018-07-16T17:09:07.568Z,0.83
2018-07-16T17:11:36.897Z,0.93
2018-07-16T17:14:06.217Z,1.20
2018-07-16T17:16:35.594Z,1.10
2018-07-16T17:19:04.960Z,0.90
2018-07-16T17:21:34.341Z,1.20
2018-07-16T17:24:04.137Z,1.20
2018-07-16T17:26:33.475Z,1.05
2018-07-16T17:29:02.824Z,1.30
2018-07-16T17:31:32.151Z,0.93
2018-07-16T17:34:01.468Z,1.00
2018-07-16T17:36:30.816Z,1.10
2018-07-16T17:39:00.147Z,0.97
2018-07-16T17:41:29.463Z,1.03
2018-07-16T17:43:58.801Z,0.80
2018-07-16T17:46:28.145Z,0.80
2018-07-16T17:48:57.493Z,1.20
2018-07-16T17:51:26.574Z,1.17
2018-07-16T17:53:55.912Z,1.03
2018-07-16T17:56:25.312Z,1.00
2018-07-16T17:58:54.620Z,1.20
2018-07-16T18:01:24.011Z,0.90
2018-07-16T18:03:53.281Z,1.07
2018-07-16T18:06:23.028Z,0.98
2018-07-16T18:08:52.411Z,1.00
2018-07-16T18:20:19.839Z,1.10
2018-07-16T18:22:49.358Z,1.00
2018-07-16T18:25:18.729Z,1.00
2018-07-16T18:27:48.087Z,1.40
2018-07-16T18:30:17.424Z,1.17
2018-07-16T18:32:46.797Z,1.10
2018-07-16T18:35:16.164Z,1.33
2018-07-16T18:37:45.519Z,1.03
2018-07-16T18:40:14.856Z,1.20
2018-07-16T18:42:44.216Z,1.10
2018-07-16T18:45:13.568Z,1.20
2018-07-16T18:47:42.904Z,1.23
2018-07-16T18:50:12.262Z,1.00
2018-07-16T18:52:41.600Z,1.10
2018-07-16T18:55:10.963Z,1.10
2018-07-16T18:57:40.323Z,0.80
2018-07-16T19:00:10.536Z,1.57
2018-07-16T19:02:39.880Z,1.30
2018-07-16T19:05:09.488Z,1.33
2018-07-16T19:07:38.850Z,1.50
2018-07-16T19:10:08.192Z,1.70
2018-07-16T19:12:37.538Z,1.30
2018-07-16T19:15:12.884Z,1.30
2018-07-16T19:17:42.333Z,1.60
2018-07-16T19:20:11.673Z,1.20
2018-07-16T19:22:41.022Z,1.17
2018-07-16T19:25:10.385Z,1.60
2018-07-16T19:27:39.765Z,1.60
2018-07-16T19:30:09.236Z,1.37
2018-07-16T19:32:38.757Z,1.50
2018-07-16T19:35:08.354Z,1.43
2018-07-16T19:37:38.091Z,1.50
2018-07-16T19:40:08.859Z,1.70
2018-07-16T19:42:38.957Z,1.60
2018-07-16T19:45:08.412Z,1.87
2018-07-16T19:47:37.837Z,1.90
2018-07-16T19:50:07.266Z,1.57
2018-07-16T19:52:37.135Z,1.40
2018-07-16T19:55:06.685Z,1.80
2018-07-16T19:57:36.297Z,1.97
2018-07-16T20:00:07.322Z,1.30
2018-07-16T20:02:36.696Z,1.23
2018-07-16T20:05:06.362Z,1.40
2018-07-16T20:07:35.688Z,1.40
2018-07-16T20:10:05.391Z,1.53
2018-07-16T20:12:36.143Z,1.80
2018-07-16T20:15:08.215Z,1.90
2018-07-16T20:17:37.493Z,1.30
2018-07-16T20:20:09.352Z,1.83
2018-07-16T20:22:38.839Z,1.70
2018-07-16T20:25:09.269Z,1.70
2018-07-16T20:27:38.596Z,1.40
2018-07-16T20:30:09.869Z,1.80
2018-07-16T20:32:39.306Z,1.73
2018-07-16T20:35:08.714Z,1.90
2018-07-16T20:37:38.160Z,1.83
2018-07-16T20:40:07.440Z,1.83
2018-07-16T20:42:36.780Z,1.80
2018-07-16T20:45:06.204Z,1.63
2018-07-16T20:47:35.530Z,1.43
2018-07-16T20:50:05.405Z,1.40
2018-07-16T20:52:34.721Z,1.87
2018-07-16T20:55:04.085Z,1.50
2018-07-16T20:57:33.424Z,1.50
2018-07-16T21:00:02.972Z,1.30
2018-07-16T21:02:32.336Z,1.50
2018-07-16T21:05:01.672Z,1.80
2018-07-16T21:07:31.108Z,2.00
2018-07-16T21:10:00.446Z,2.07
2018-07-16T21:12:29.777Z,1.97
2018-07-16T21:14:59.183Z,1.63
2018-07-16T21:17:28.505Z,2.00
2018-07-16T21:19:57.844Z,2.37
2018-07-16T21:22:27.157Z,1.77
2018-07-16T21:24:56.525Z,1.97
2018-07-16T21:27:25.878Z,2.20
2018-07-16T21:29:55.213Z,2.00
2018-07-16T21:32:24.541Z,1.90
2018-07-16T21:34:53.898Z,1.90
2018-07-16T21:37:23.226Z,2.20
2018-07-16T21:39:52.602Z,2.30
2018-07-16T21:42:22.025Z,2.10
2018-07-16T21:44:51.368Z,2.50
2018-07-16T21:47:20.688Z,2.20
2018-07-16T21:49:50.019Z,2.50
2018-07-16T21:52:19.351Z,2.10
2018-07-16T21:54:48.668Z,1.77
2018-07-16T21:57:18.004Z,1.57
2018-07-16T21:59:47.344Z,1.90
2018-07-16T22:02:16.673Z,2.00
2018-07-16T22:04:46.010Z,2.20
2018-07-16T22:07:15.318Z,3.00
2018-07-16T22:09:44.636Z,2.00
2018-07-16T22:12:13.968Z,1.93
2018-07-16T22:14:43.311Z,2.50
2018-07-16T22:17:12.628Z,2.10
2018-07-16T22:19:41.944Z,2.10
2018-07-16T22:22:11.006Z,2.23
2018-07-16T22:24:40.348Z,1.87
2018-07-16T22:27:09.694Z,2.20
2018-07-16T22:29:39.003Z,2.23
2018-07-16T22:32:08.333Z,2.63
2018-07-16T22:34:37.654Z,1.90
2018-07-16T22:37:06.988Z,1.90
2018-07-16T22:39:36.336Z,2.40
2018-07-16T22:42:05.656Z,2.10
2018-07-16T22:44:35.012Z,2.03
2018-07-16T22:47:04.333Z,2.23
2018-07-16T22:49:33.690Z,1.90
2018-07-16T22:52:03.012Z,2.30
2018-07-16T22:54:32.332Z,1.63
2018-07-16T22:57:01.639Z,2.20
2018-07-16T22:59:31.021Z,2.13
2018-07-16T23:02:00.330Z,2.40
2018-07-16T23:04:29.640Z,2.07
2018-07-16T23:10:21.043Z,2.00
2018-07-16T23:12:50.383Z,2.40
2018-07-16T23:15:19.705Z,2.43
2018-07-16T23:17:49.077Z,2.30
2018-07-16T23:20:18.412Z,1.80
2018-07-16T23:22:53.304Z,2.03
2018-07-16T23:25:23.649Z,2.00
2018-07-16T23:27:53.001Z,1.80
2018-07-16T23:30:22.329Z,2.20
2018-07-16T23:32:51.693Z,2.17
2018-07-16T23:35:21.064Z,2.20
2018-07-16T23:37:50.370Z,2.63
2018-07-16T23:40:19.704Z,2.17
2018-07-16T23:42:49.071Z,1.90
2018-07-16T23:45:18.373Z,1.90
2018-07-16T23:47:47.803Z,2.20
2018-07-16T23:50:17.185Z,2.33
2018-07-16T23:52:46.485Z,2.60
2018-07-16T23:55:15.853Z,2.20
2018-07-16T23:57:45.172Z,2.20
